Time;durP1;ratioP1;P1;durP2;ratioP2;P2;SDS_P1;SDS_P2;PMS_P1;PMS_P2;Temp;Humidity;BMP_temperature;BMP_pressure;BME280_temperature;BME280_humidity;BME280_pressure;Samples;Min_cycle;Max_cycle;Signal;HPM_P1;HPM_P2
2022/06/15 04:01:16;;;;;;;1.80;1.30;;;15.20;96.30;;;;;;5644308;22;20497;-77
2022/06/15 04:03:42;;;;;;;1.70;1.23;;;15.80;95.50;;;;;;5053643;28;20820;-78
2022/06/15 04:06:07;;;;;;;12.53;2.10;;;16.50;94.20;;;;;;5035349;28;20851;-78
2022/06/15 04:08:36;;;;;;;1.80;1.17;;;16.80;91.70;;;;;;5052889;28;20250;-78
2022/06/15 04:14:06;;;;;;;2.83;1.40;;;17.20;91.90;;;;;;5033701;28;20554;-79
2022/06/15 04:16:32;;;;;;;4.57;1.37;;;17.40;90.00;;;;;;5034751;28;21025;-79
2022/06/15 04:19:02;;;;;;;3.70;1.60;;;17.80;89.80;;;;;;5033860;28;20164;-79
2022/06/15 05:00:18;;;;;;;11.00;1.73;;;21.90;77.40;;;;;;5201456;22;21204;-77
2022/06/15 05:02:45;;;;;;;3.67;1.50;;;22.90;76.20;;;;;;4994982;28;20470;-77
2022/06/15 05:05:10;;;;;;;2.03;1.40;;;22.90;75.50;;;;;;5013998;28;20411;-76
2022/06/15 05:07:36;;;;;;;2.73;1.53;;;23.00;75.60;;;;;;5030985;28;20513;-77
2022/06/15 05:10:03;;;;;;;4.77;1.43;;;23.00;75.40;;;;;;5032187;28;20174;-77
2022/06/15 05:12:29;;;;;;;4.23;1.37;;;23.80;74.00;;;;;;5012272;28;20185;-77
2022/06/15 05:14:55;;;;;;;3.97;1.27;;;23.00;76.40;;;;;;5012369;28;20477;-77
2022/06/15 05:17:21;;;;;;;6.20;1.70;;;23.00;76.60;;;;;;4998589;23;20227;-78
2022/06/15 05:19:47;;;;;;;3.60;1.77;;;23.30;75.30;;;;;;4980778;28;20186;-78
2022/06/15 05:22:13;;;;;;;5.10;1.60;;;22.50;74.90;;;;;;4975616;28;20409;-79
2022/06/15 05:24:38;;;;;;;4.40;1.57;;;22.40;75.90;;;;;;4957683;28;20578;-78
2022/06/15 05:27:05;;;;;;;3.80;1.63;;;23.30;73.10;;;;;;4992539;28;20201;-77
2022/06/15 05:29:31;;;;;;;5.03;1.43;;;23.30;73.50;;;;;;4984778;28;20183;-77
2022/06/15 05:31:57;;;;;;;5.87;1.70;;;23.60;73.00;;;;;;5003874;28;20424;-77
2022/06/15 05:34:23;;;;;;;3.77;1.50;;;24.20;72.50;;;;;;5005341;28;20424;-78
2022/06/15 05:36:49;;;;;;;3.30;1.40;;;24.80;70.70;;;;;;4998862;28;20468;-78
2022/06/15 05:39:14;;;;;;;1.80;1.37;;;24.50;71.20;;;;;;5000527;28;20660;-78
2022/06/15 05:41:41;;;;;;;5.27;1.43;;;25.40;70.00;;;;;;5008195;28;20220;-78
2022/06/15 05:44:14;;;;;;;2.80;1.47;;;26.00;68.20;;;;;;5013568;28;20228;-78
2022/06/15 05:46:40;;;;;;;4.70;1.53;;;26.90;66.10;;;;;;5016990;28;20438;-78
2022/06/15 05:49:06;;;;;;;1.90;1.20;;;25.70;68.20;;;;;;5012185;28;20415;-78
2022/06/15 05:51:32;;;;;;;4.93;1.60;;;24.50;69.60;;;;;;5013658;28;20415;-78
2022/06/15 05:53:58;;;;;;;2.97;1.30;;;24.90;70.10;;;;;;5011468;28;20255;-77
2022/06/15 05:56:24;;;;;;;2.47;1.50;;;25.70;68.00;;;;;;4993442;28;20200;-78
2022/06/15 05:58:50;;;;;;;4.07;1.33;;;25.70;67.30;;;;;;4993615;28;20422;-77
2022/06/15 06:01:32;;;;;;;8.67;1.90;;;25.50;67.60;;;;;;5002263;28;20173;-77
2022/06/15 06:03:59;;;;;;;4.13;1.40;;;24.90;68.60;;;;;;5011626;28;21066;-77
2022/06/15 06:06:25;;;;;;;3.47;1.87;;;25.00;69.50;;;;;;5005772;28;21002;-78
2022/06/15 06:08:51;;;;;;;8.87;1.53;;;25.10;69.40;;;;;;5005028;28;20427;-78
2022/06/15 06:11:17;;;;;;;2.70;1.17;;;26.10;68.70;;;;;;5011897;28;20418;-79
2022/06/15 06:13:43;;;;;;;6.40;1.30;;;26.90;66.40;;;;;;4987860;28;20189;-79
2022/06/15 06:18:44;;;;;;;5.37;1.33;;;26.10;67.40;;;;;;5210093;22;20231;-76
2022/06/15 06:21:10;;;;;;;5.43;1.87;;;26.80;65.60;;;;;;5052722;28;20413;-76
2022/06/15 06:23:36;;;;;;;9.83;1.77;;;27.40;65.00;;;;;;5054887;28;20650;-76
2022/06/15 06:26:03;;;;;;;4.20;1.40;;;27.80;63.80;;;;;;5051975;28;20273;-76
2022/06/15 06:28:38;;;;;;;3.43;1.20;;;27.40;64.80;;;;;;5022725;28;20427;-76
2022/06/15 06:31:06;;;;;;;6.73;1.60;;;27.90;65.80;;;;;;5032958;28;20906;-75
2022/06/15 06:33:34;;;;;;;3.67;1.40;;;28.70;63.30;;;;;;5024931;28;20431;-76
2022/06/15 06:36:04;;;;;;;9.83;1.43;;;29.30;62.00;;;;;;5014554;28;20978;-76
2022/06/15 06:38:30;;;;;;;2.97;1.37;;;29.30;62.50;;;;;;5014091;28;20419;-77
2022/06/15 06:40:56;;;;;;;2.37;1.20;;;29.40;61.40;;;;;;5030239;28;20413;-77
2022/06/15 06:43:23;;;;;;;4.07;1.90;;;28.70;63.20;;;;;;5007988;28;20212;-77
2022/06/15 06:45:49;;;;;;;2.30;1.53;;;28.40;63.30;;;;;;5034506;28;20640;-76
2022/06/15 06:48:15;;;;;;;5.43;1.50;;;27.90;63.80;;;;;;5034338;28;20509;-76
2022/06/15 06:50:42;;;;;;;2.07;1.40;;;27.60;63.70;;;;;;5034727;28;20414;-76
2022/06/15 06:53:10;;;;;;;3.97;1.47;;;27.40;65.50;;;;;;5016656;28;20418;-76
2022/06/15 06:55:35;;;;;;;2.50;1.30;;;26.70;66.40;;;;;;5034135;28;20462;-76
2022/06/15 06:58:01;;;;;;;5.97;1.47;;;27.20;66.90;;;;;;5029367;28;20430;-76
2022/06/15 07:00:30;;;;;;;2.73;1.50;;;27.20;66.20;;;;;;5014492;28;20180;-76
2022/06/15 07:02:58;;;;;;;6.10;1.70;;;27.60;65.70;;;;;;5014792;28;20415;-77
2022/06/15 07:05:24;;;;;;;1.30;1.13;;;28.00;64.80;;;;;;5014605;28;20422;-77
2022/06/15 07:07:49;;;;;;;4.30;1.60;;;28.20;64.10;;;;;;5014376;28;20431;-77
2022/06/15 07:10:15;;;;;;;2.43;1.20;;;28.40;64.50;;;;;;5022494;28;20183;-77
2022/06/15 07:12:42;;;;;;;3.93;1.50;;;29.40;62.90;;;;;;5027983;28;20187;-78
2022/06/15 07:15:09;;;;;;;2.83;1.40;;;28.80;63.30;;;;;;5025035;28;20255;-77
2022/06/15 07:17:35;;;;;;;9.30;1.30;;;29.60;63.00;;;;;;5026558;28;20485;-77
2022/06/15 07:20:01;;;;;;;2.37;1.50;;;29.50;62.50;;;;;;5016279;28;20422;-76
2022/06/15 07:22:26;;;;;;;6.00;1.40;;;29.90;61.80;;;;;;5033860;28;20176;-77
2022/06/15 07:24:52;;;;;;;5.87;1.30;;;29.50;62.50;;;;;;5016230;28;20187;-77
2022/06/15 07:27:17;;;;;;;13.40;1.90;;;29.90;62.00;;;;;;5016034;28;20692;-77
2022/06/15 07:29:46;;;;;;;7.90;1.80;;;30.20;61.60;;;;;;5033758;28;20588;-78
2022/06/15 07:32:13;;;;;;;2.40;1.50;;;29.60;63.30;;;;;;5033627;28;20230;-77
2022/06/15 07:34:39;;;;;;;6.23;1.60;;;31.30;65.60;;;;;;5016383;28;20419;-77
2022/06/15 07:37:04;;;;;;;2.60;1.30;;;32.20;60.00;;;;;;5033741;28;20467;-78
2022/06/15 07:39:30;;;;;;;2.60;1.30;;;31.50;58.30;;;;;;5015540;28;20429;-78
2022/06/15 07:41:57;;;;;;;2.77;1.53;;;31.50;61.70;;;;;;5033980;28;20184;-77
2022/06/15 07:44:24;;;;;;;4.50;1.50;;;32.50;59.80;;;;;;5033664;28;20254;-78
2022/06/15 07:49:54;;;;;;;4.35;1.33;;;33.30;57.30;;;;;;5033557;28;20244;-78
2022/06/15 07:49:56;;;;;;;4.55;1.60;;;33.60;54.20;;;;;;5033376;28;20209;-78
2022/06/15 07:52:26;;;;;;;1.52;1.17;;;33.10;59.30;;;;;;5032430;28;20171;-78
2022/06/15 07:54:52;;;;;;;2.97;1.30;;;33.40;57.60;;;;;;5014796;28;20168;-79
2022/06/15 07:57:18;;;;;;;5.88;1.48;;;33.80;54.80;;;;;;5032995;28;20211;-77
2022/06/15 07:59:43;;;;;;;3.25;1.13;;;33.70;56.20;;;;;;5033133;28;20221;-77
2022/06/15 08:02:09;;;;;;;4.40;1.42;;;33.50;55.40;;;;;;5033302;28;20536;-77
2022/06/15 08:04:35;;;;;;;4.70;1.52;;;33.80;55.20;;;;;;5032667;28;20643;-78
2022/06/15 08:07:00;;;;;;;2.88;1.20;;;33.70;54.00;;;;;;5032994;28;20278;-77
2022/06/15 08:09:26;;;;;;;4.80;1.73;;;33.90;54.20;;;;;;5032861;28;20179;-76
2022/06/15 08:14:39;;;;;;;5.93;1.27;;;33.80;55.10;;;;;;5023416;28;20203;-77
2022/06/15 08:17:07;;;;;;;4.03;1.42;;;33.30;56.40;;;;;;5012382;28;20231;-77
2022/06/15 08:19:39;;;;;;;4.40;1.45;;;33.20;57.40;;;;;;5013128;28;20793;-77
2022/06/15 08:22:07;;;;;;;4.57;1.42;;;33.60;55.10;;;;;;4997999;28;20183;-77
2022/06/15 08:24:34;;;;;;;4.70;1.58;;;33.60;54.40;;;;;;5023542;28;20218;-77
2022/06/15 08:27:01;;;;;;;2.28;1.38;;;33.40;58.50;;;;;;5022207;28;20239;-77
2022/06/15 08:29:27;;;;;;;6.65;1.38;;;33.90;56.40;;;;;;5021315;28;20183;-77
2022/06/15 08:31:57;;;;;;;3.50;1.00;;;34.50;54.10;;;;;;5005616;28;20171;-77
2022/06/15 08:34:26;;;;;;;2.90;1.30;;;34.00;54.60;;;;;;5025306;28;20171;-75
2022/06/15 08:36:51;;;;;;;2.03;1.37;;;33.70;56.10;;;;;;5031804;28;20569;-78
2022/06/15 08:39:17;;;;;;;1.67;1.30;;;33.90;52.40;;;;;;5000080;28;20507;-75
2022/06/15 08:41:53;;;;;;;3.13;1.47;;;33.80;56.10;;;;;;5012807;28;20287;-75
2022/06/15 08:44:48;;;;;;;7.20;1.60;;;33.80;53.60;;;;;;5012774;28;20171;-78
2022/06/15 08:47:32;;;;;;;2.47;1.40;;;32.60;57.40;;;;;;5027831;28;20423;-78
2022/06/15 08:50:33;;;;;;;9.00;1.50;;;33.00;56.20;;;;;;5012766;28;20446;-78
2022/06/15 08:53:46;;;;;;;3.43;1.60;;;32.80;53.50;;;;;;4994893;28;20201;-78
2022/06/15 08:56:13;;;;;;;2.03;1.47;;;31.90;58.50;;;;;;5012660;28;20758;-78
2022/06/15 08:58:44;;;;;;;4.33;1.30;;;32.70;56.70;;;;;;5012245;28;20403;-78
2022/06/15 09:01:19;;;;;;;2.23;1.40;;;32.40;55.90;;;;;;4995091;28;20419;-77
2022/06/15 09:04:05;;;;;;;4.33;1.70;;;32.30;54.80;;;;;;5012595;28;20406;-76
2022/06/15 09:06:44;;;;;;;4.97;2.00;;;32.20;59.50;;;;;;5011990;28;20485;-77
2022/06/15 09:09:29;;;;;;;5.00;1.50;;;31.50;59.90;;;;;;5012023;28;20425;-76
2022/06/15 09:15:50;;;;;;;3.40;2.10;;;31.90;59.50;;;;;;5007491;28;20444;-76
2022/06/15 09:18:24;;;;;;;3.10;1.83;;;32.40;55.90;;;;;;5011997;28;20447;-76
2022/06/15 09:21:09;;;;;;;6.33;1.87;;;32.50;58.40;;;;;;4994685;28;20451;-76
2022/06/15 09:23:49;;;;;;;4.73;1.60;;;32.40;58.60;;;;;;5017144;28;20915;-78
2022/06/15 09:26:28;;;;;;;5.00;1.63;;;32.80;59.60;;;;;;5012010;28;20946;-78
2022/06/15 09:29:01;;;;;;;5.43;1.53;;;32.80;58.80;;;;;;5012092;28;20411;-78
2022/06/15 09:31:56;;;;;;;15.43;1.87;;;32.60;58.90;;;;;;5012279;28;20415;-78
2022/06/15 09:34:34;;;;;;;5.00;1.50;;;32.50;58.80;;;;;;5012316;28;20243;-78
2022/06/15 09:36:59;;;;;;;5.77;1.60;;;31.90;56.20;;;;;;5011936;28;20454;-77
2022/06/15 09:39:27;;;;;;;3.90;1.80;;;30.60;56.50;;;;;;4994169;28;20172;-78
2022/06/15 09:42:18;;;;;;;2.93;1.70;;;30.70;55.80;;;;;;5012131;28;20211;-78
2022/06/15 09:44:59;;;;;;;5.67;1.50;;;30.10;57.40;;;;;;5013849;28;20411;-79
2022/06/15 09:47:56;;;;;;;5.10;1.50;;;29.10;58.60;;;;;;5014741;28;20427;-79
2022/06/15 09:50:33;;;;;;;3.97;1.93;;;28.60;64.10;;;;;;5014680;28;20899;-79
2022/06/15 09:53:12;;;;;;;4.90;2.10;;;29.60;64.60;;;;;;5014821;28;20434;-79
2022/06/15 09:55:43;;;;;;;4.10;1.83;;;29.80;63.90;;;;;;5014599;28;20461;-79
2022/06/15 09:58:13;;;;;;;3.50;1.63;;;30.30;65.00;;;;;;5014642;28;20887;-78
2022/06/15 10:00:40;;;;;;;4.23;1.80;;;30.80;63.30;;;;;;5014965;28;20423;-79
2022/06/15 10:03:18;;;;;;;3.93;2.27;;;31.30;60.90;;;;;;5014232;28;20411;-79
2022/06/15 10:05:44;;;;;;;4.00;2.00;;;31.00;59.40;;;;;;5014474;28;20465;-79
2022/06/15 10:08:14;;;;;;;4.50;1.63;;;31.20;59.30;;;;;;5013851;28;20470;-79
2022/06/15 10:10:58;;;;;;;2.20;1.70;;;31.00;58.80;;;;;;4996317;28;20434;-79
2022/06/15 10:13:34;;;;;;;2.13;1.40;;;31.30;62.20;;;;;;5014301;28;20419;-79
2022/06/15 10:16:03;;;;;;;2.43;1.57;;;31.30;60.30;;;;;;5015223;28;20482;-80
2022/06/15 10:18:35;;;;;;;5.43;1.77;;;31.50;58.10;;;;;;5015067;28;20490;-80
2022/06/15 10:21:09;;;;;;;6.23;2.00;;;30.60;57.30;;;;;;5018440;28;20774;-80
2022/06/15 10:23:40;;;;;;;5.50;1.80;;;31.20;60.90;;;;;;5018289;28;20406;-79
2022/06/15 10:26:10;;;;;;;4.37;1.73;;;31.60;61.80;;;;;;5018161;28;20950;-80
2022/06/15 10:28:39;;;;;;;2.70;1.33;;;31.80;55.30;;;;;;5018120;28;20422;-80
2022/06/15 10:31:14;;;;;;;7.67;1.70;;;29.90;56.70;;;;;;5017395;28;20413;-79
2022/06/15 10:33:42;;;;;;;4.90;1.70;;;29.20;61.20;;;;;;5017650;28;20484;-79
2022/06/15 10:36:30;;;;;;;5.20;1.40;;;28.80;58.40;;;;;;5017320;28;20562;-79
2022/06/15 10:39:06;;;;;;;6.80;1.90;;;28.20;60.40;;;;;;5017008;28;20439;-79
2022/06/15 10:41:50;;;;;;;3.47;2.00;;;28.30;61.50;;;;;;5016999;28;20403;-79
2022/06/15 10:44:18;;;;;;;9.40;1.90;;;28.30;59.70;;;;;;5017181;28;20414;-79
2022/06/15 10:47:01;;;;;;;4.40;1.77;;;29.10;63.80;;;;;;5012686;28;20454;-79
2022/06/15 10:49:32;;;;;;;7.97;1.80;;;29.20;60.10;;;;;;5026993;28;20418;-78
2022/06/15 10:51:58;;;;;;;3.73;1.73;;;29.00;61.60;;;;;;5031558;28;20426;-79
2022/06/15 11:02:06;;;;;;;3.20;1.63;;;29.40;58.60;;;;;;5023446;28;20836;-78
2022/06/15 11:03:23;;;;;;;8.90;1.77;;;28.30;61.00;;;;;;5015703;28;21194;-79
2022/06/15 11:05:53;;;;;;;4.73;1.70;;;28.20;60.80;;;;;;5026426;28;20413;-78
2022/06/15 11:08:26;;;;;;;5.57;2.00;;;28.00;61.60;;;;;;5035192;28;20453;-78
2022/06/15 11:11:08;;;;;;;6.93;1.67;;;28.40;60.90;;;;;;5021895;28;20514;-78
2022/06/15 11:13:40;;;;;;;4.30;1.77;;;28.60;65.80;;;;;;5017468;28;20417;-78
2022/06/15 11:19:16;;;;;;;8.40;1.83;;;29.30;60.60;;;;;;5024158;28;20413;-77
2022/06/15 11:21:48;;;;;;;2.90;1.60;;;29.90;63.10;;;;;;5023588;28;20823;-78
2022/06/15 11:24:38;;;;;;;4.33;1.80;;;30.50;60.20;;;;;;5015528;28;20403;-79
2022/06/15 11:27:33;;;;;;;5.57;2.10;;;30.00;57.30;;;;;;5005777;28;20427;-78
2022/06/15 11:30:28;;;;;;;5.60;1.80;;;30.00;61.70;;;;;;5020473;28;20431;-78
2022/06/15 11:33:11;;;;;;;4.50;2.33;;;30.50;61.50;;;;;;5016673;28;20423;-79
2022/06/15 11:35:42;;;;;;;6.47;2.20;;;31.20;59.40;;;;;;5005739;28;20466;-78
2022/06/15 11:38:15;;;;;;;5.23;1.90;;;30.40;57.70;;;;;;5031982;28;20421;-78
2022/06/15 11:40:50;;;;;;;4.20;1.67;;;30.20;58.10;;;;;;5020780;28;20549;-80
2022/06/15 11:43:22;;;;;;;4.40;1.70;;;30.00;64.40;;;;;;5030360;28;20407;-78
2022/06/15 11:46:16;;;;;;;5.23;1.83;;;30.40;61.60;;;;;;5019972;28;20442;-78
2022/06/15 11:48:53;;;;;;;5.23;1.83;;;30.40;65.10;;;;;;5016055;28;20537;-78
2022/06/15 11:51:43;;;;;;;5.00;2.17;;;31.00;60.20;;;;;;5015673;28;20411;-78
2022/06/15 11:54:19;;;;;;;7.10;2.23;;;30.60;55.80;;;;;;5016796;28;20430;-78
2022/06/15 11:57:09;;;;;;;6.47;2.10;;;29.30;57.80;;;;;;5016453;28;20466;-79
2022/06/15 11:59:55;;;;;;;3.17;1.70;;;29.30;57.60;;;;;;5015818;28;20432;-79
2022/06/15 12:02:36;;;;;;;4.30;2.00;;;28.40;59.70;;;;;;5016348;28;20415;-79
2022/06/15 12:05:41;;;;;;;3.60;2.10;;;28.90;63.10;;;;;;4998598;28;20423;-79
2022/06/15 12:08:32;;;;;;;5.00;1.90;;;29.40;62.10;;;;;;5011411;28;20478;-79
2022/06/15 12:14:22;;;;;;;6.80;2.17;;;29.80;57.40;;;;;;5011276;28;21014;-79
2022/06/15 12:17:04;;;;;;;4.40;2.07;;;29.70;60.30;;;;;;5016419;28;20520;-79
2022/06/15 12:19:46;;;;;;;3.07;1.73;;;30.10;63.60;;;;;;5012701;28;20411;-79
2022/06/15 12:22:50;;;;;;;4.23;1.87;;;30.30;59.70;;;;;;5013763;28;20507;-79
2022/06/15 12:25:28;;;;;;;3.30;1.80;;;29.40;59.30;;;;;;5013304;28;20406;-78
2022/06/15 14:12:27;;;;;;;7.90;1.40;;;29.70;58.50;;;;;;4998096;28;21024;-78
2022/06/15 14:15:28;;;;;;;4.13;1.87;;;29.20;59.00;;;;;;4997443;28;20983;-78
2022/06/15 14:18:09;;;;;;;4.50;1.63;;;29.50;60.00;;;;;;4957628;28;20477;-77
2022/06/15 14:20:43;;;;;;;4.80;2.20;;;30.00;60.70;;;;;;4957724;29;20457;-77
2022/06/15 14:23:10;;;;;;;2.00;1.80;;;30.10;60.90;;;;;;4956607;29;20476;-77
2022/06/15 14:25:48;;;;;;;3.77;2.00;;;30.00;57.60;;;;;;4957757;29;20418;-78
2022/06/15 14:28:18;;;;;;;5.03;1.80;;;30.20;59.50;;;;;;4957145;28;20958;-77
2022/06/15 14:30:46;;;;;;;14.00;2.30;;;30.20;60.20;;;;;;4959723;28;20417;-77
2022/06/15 14:33:18;;;;;;;2.80;1.60;;;30.00;61.60;;;;;;4959153;29;20410;-77
2022/06/15 14:35:56;;;;;;;3.73;1.60;;;29.80;62.00;;;;;;4959622;28;20578;-77
2022/06/15 14:38:22;;;;;;;2.37;1.83;;;29.50;60.50;;;;;;4957605;29;20414;-78
2022/06/15 14:40:48;;;;;;;3.43;1.57;;;29.10;60.50;;;;;;4958680;29;20832;-77
2022/06/15 14:43:14;;;;;;;4.77;1.30;;;28.90;62.50;;;;;;4960338;28;20211;-78
2022/06/15 14:45:46;;;;;;;2.70;1.63;;;29.20;62.30;;;;;;4961123;29;20456;-78
2022/06/15 14:48:28;;;;;;;1.67;1.50;;;29.10;61.50;;;;;;4957341;29;20174;-78
2022/06/15 14:51:09;;;;;;;4.40;1.87;;;29.00;61.90;;;;;;4959405;29;20449;-78
2022/06/15 14:53:37;;;;;;;4.90;1.73;;;28.70;61.20;;;;;;4958857;29;20422;-77
2022/06/15 14:56:05;;;;;;;5.10;1.77;;;28.80;62.20;;;;;;4962225;28;20458;-77
2022/06/15 14:58:31;;;;;;;2.40;1.67;;;28.50;61.50;;;;;;4958165;28;20518;-78
2022/06/15 15:01:06;;;;;;;6.17;2.27;;;28.90;62.40;;;;;;4958792;28;20938;-78
2022/06/15 15:03:34;;;;;;;6.60;1.83;;;29.00;59.30;;;;;;4958106;28;20193;-77
2022/06/15 15:06:12;;;;;;;3.07;1.53;;;28.70;59.80;;;;;;4956704;28;20484;-77
2022/06/15 15:08:42;;;;;;;2.90;1.77;;;28.80;62.60;;;;;;4955892;29;20435;-77
2022/06/15 15:11:31;;;;;;;5.57;1.80;;;29.00;61.80;;;;;;4960482;29;20975;-77
2022/06/15 15:14:03;;;;;;;2.83;1.60;;;29.40;62.40;;;;;;4958103;29;20396;-78
2022/06/15 15:16:41;;;;;;;9.83;1.87;;;28.90;59.20;;;;;;4956620;28;20548;-79
2022/06/15 15:19:11;;;;;;;3.40;1.63;;;29.20;61.60;;;;;;4957762;28;20481;-79
2022/06/15 15:21:42;;;;;;;2.33;1.73;;;29.30;63.10;;;;;;4957719;28;20406;-79
2022/06/15 15:24:13;;;;;;;7.43;1.90;;;29.30;62.60;;;;;;4968400;28;20439;-79
2022/06/15 15:26:57;;;;;;;8.03;1.80;;;29.60;63.70;;;;;;4974870;28;20502;-79
2022/06/15 15:35:15;;;;;;;9.47;2.10;;;28.50;60.00;;;;;;4985369;28;20404;-79
2022/06/15 15:37:45;;;;;;;4.93;1.90;;;28.90;60.30;;;;;;4984383;28;20464;-80
2022/06/15 15:40:20;;;;;;;3.10;2.00;;;29.00;59.10;;;;;;4986780;28;21263;-79
2022/06/15 15:42:46;;;;;;;3.67;1.83;;;29.00;59.70;;;;;;4984752;28;20417;-78
2022/06/15 15:45:16;;;;;;;2.60;1.63;;;29.10;59.30;;;;;;4996241;28;20408;-78
2022/06/15 15:47:41;;;;;;;4.90;1.80;;;28.90;60.80;;;;;;4995173;28;20255;-78
2022/06/15 15:50:08;;;;;;;2.70;1.47;;;28.90;60.30;;;;;;4996766;28;20460;-79
2022/06/15 15:52:33;;;;;;;3.93;1.93;;;28.80;61.40;;;;;;4996343;28;20176;-78
2022/06/15 15:54:59;;;;;;;6.60;1.40;;;28.40;61.40;;;;;;4996159;28;20432;-78
2022/06/15 15:57:24;;;;;;;3.30;1.60;;;28.50;64.00;;;;;;4995570;28;20212;-77
2022/06/15 15:59:52;;;;;;;2.90;1.50;;;28.30;62.80;;;;;;4996607;28;20177;-77
2022/06/15 16:02:23;;;;;;;5.80;1.80;;;28.40;63.80;;;;;;4996752;28;20173;-78
2022/06/15 16:04:50;;;;;;;2.73;1.80;;;28.30;63.00;;;;;;4979942;28;20511;-79
2022/06/15 16:07:22;;;;;;;5.07;2.00;;;28.30;61.60;;;;;;4974806;28;20444;-79
2022/06/15 16:09:53;;;;;;;3.67;1.80;;;28.30;62.60;;;;;;4979699;28;20905;-78
2022/06/15 16:12:20;;;;;;;6.60;1.40;;;28.20;62.70;;;;;;4982723;28;20487;-79
2022/06/15 16:14:46;;;;;;;2.53;1.90;;;28.00;64.80;;;;;;4981531;28;20467;-78
2022/06/15 16:17:11;;;;;;;5.00;1.67;;;28.00;65.00;;;;;;4975507;28;20460;-78
2022/06/15 16:19:37;;;;;;;5.00;1.67;;;28.00;65.80;;;;;;4976629;28;20260;-79
2022/06/15 16:22:03;;;;;;;2.20;2.00;;;28.00;64.80;;;;;;4977101;28;20184;-78
2022/06/15 16:24:30;;;;;;;2.43;1.53;;;27.90;63.30;;;;;;4976803;28;20192;-78
2022/06/15 16:26:56;;;;;;;11.67;2.27;;;27.70;62.10;;;;;;4958861;28;20480;-77
2022/06/15 16:29:23;;;;;;;5.00;1.40;;;27.90;65.20;;;;;;4972740;28;20476;-77
2022/06/15 16:31:49;;;;;;;3.90;1.73;;;27.90;65.80;;;;;;4974465;28;20421;-77
2022/06/15 16:34:14;;;;;;;3.00;1.67;;;27.90;66.80;;;;;;4974817;28;20424;-78
2022/06/15 16:36:39;;;;;;;7.47;2.10;;;27.80;68.10;;;;;;4974025;28;20243;-77
2022/06/15 16:39:05;;;;;;;4.90;1.80;;;27.70;68.70;;;;;;4973272;28;20668;-76
2022/06/15 16:41:31;;;;;;;2.97;1.63;;;27.40;66.40;;;;;;4956753;28;20212;-77
2022/06/15 16:43:57;;;;;;;4.70;1.70;;;27.20;66.00;;;;;;4973957;28;20178;-76
2022/06/15 16:46:26;;;;;;;2.97;1.87;;;27.30;65.60;;;;;;4973906;28;20487;-76
2022/06/15 16:48:52;;;;;;;2.93;1.60;;;27.40;65.50;;;;;;4973528;28;20470;-76
2022/06/15 16:51:21;;;;;;;3.20;1.40;;;27.20;66.10;;;;;;4973786;28;20773;-77
2022/06/15 16:53:48;;;;;;;3.60;1.70;;;27.20;67.20;;;;;;4973360;28;20193;-77
2022/06/15 16:56:38;;;;;;;6.77;1.97;;;27.20;68.40;;;;;;4970127;28;20464;-78
2022/06/15 16:59:26;;;;;;;2.20;1.53;;;27.20;67.70;;;;;;4972231;28;20440;-78
2022/06/15 17:01:52;;;;;;;4.20;1.87;;;27.10;66.90;;;;;;4986183;28;20409;-77
2022/06/15 17:04:18;;;;;;;5.40;1.73;;;27.00;67.60;;;;;;4972855;28;20472;-78
2022/06/15 17:06:48;;;;;;;3.03;1.57;;;26.80;68.90;;;;;;4974099;28;20204;-79
2022/06/15 17:09:14;;;;;;;6.57;1.53;;;26.80;67.40;;;;;;4974000;28;20432;-79
2022/06/15 17:11:44;;;;;;;2.83;1.57;;;26.80;68.80;;;;;;4976837;28;20404;-80
2022/06/15 17:14:10;;;;;;;5.60;1.70;;;26.70;69.60;;;;;;4976012;28;20929;-79
2022/06/15 17:16:36;;;;;;;4.47;1.80;;;26.70;70.30;;;;;;4976075;28;20488;-79
2022/06/15 17:19:02;;;;;;;2.17;1.77;;;26.50;70.30;;;;;;4976076;28;20527;-79
2022/06/15 17:21:27;;;;;;;6.23;1.73;;;26.40;67.50;;;;;;4976218;28;20409;-79
2022/06/15 17:23:59;;;;;;;4.17;1.73;;;26.40;68.60;;;;;;4959958;28;20165;-80
2022/06/15 17:26:27;;;;;;;6.77;1.57;;;26.30;68.40;;;;;;4976216;28;20221;-79
2022/06/15 17:28:53;;;;;;;1.67;1.40;;;26.30;70.30;;;;;;4976374;28;20421;-79
2022/06/15 17:31:21;;;;;;;2.67;1.80;;;25.90;69.10;;;;;;4974071;28;20452;-79
2022/06/15 17:33:46;;;;;;;5.00;1.60;;;25.70;70.00;;;;;;4973511;28;20424;-78
2022/06/15 17:36:15;;;;;;;7.03;1.77;;;25.50;72.40;;;;;;4973013;28;20464;-78
2022/06/15 17:38:43;;;;;;;3.77;1.73;;;25.20;72.60;;;;;;4981157;28;20174;-78
2022/06/15 17:41:09;;;;;;;5.80;1.90;;;25.10;73.10;;;;;;4973305;28;20409;-78
2022/06/15 17:43:35;;;;;;;4.40;1.60;;;25.00;72.60;;;;;;4973977;28;20413;-78
2022/06/15 17:46:03;;;;;;;4.60;1.80;;;25.10;72.60;;;;;;4974815;28;20807;-79
2022/06/15 17:48:29;;;;;;;3.43;1.60;;;25.00;73.20;;;;;;4975123;28;20240;-79
2022/06/15 17:50:54;;;;;;;3.47;1.43;;;24.90;75.20;;;;;;4975366;28;20413;-79
2022/06/15 17:53:20;;;;;;;5.70;1.70;;;24.70;76.20;;;;;;4975408;28;20436;-79
2022/06/15 17:55:45;;;;;;;5.90;2.00;;;24.60;77.00;;;;;;4983851;28;20201;-79
2022/06/15 17:58:11;;;;;;;8.10;2.57;;;24.30;78.90;;;;;;4962881;28;20178;-78
2022/06/15 18:00:38;;;;;;;2.93;1.73;;;24.10;81.40;;;;;;4969029;28;20232;-78
2022/06/15 18:03:05;;;;;;;4.00;1.57;;;24.00;81.60;;;;;;4972988;28;20313;-78
2022/06/15 18:05:31;;;;;;;3.13;1.40;;;23.80;81.30;;;;;;4987054;28;20424;-79
2022/06/15 18:07:57;;;;;;;14.90;1.43;;;23.70;80.90;;;;;;4990060;28;20440;-77
2022/06/15 18:10:22;;;;;;;3.50;1.70;;;23.70;82.50;;;;;;4992100;28;20412;-78
2022/06/15 18:12:48;;;;;;;4.43;1.73;;;23.60;80.70;;;;;;4992690;28;20574;-77
2022/06/15 18:15:18;;;;;;;6.07;1.73;;;23.50;83.30;;;;;;4983348;28;20578;-78
2022/06/15 18:17:46;;;;;;;2.80;1.50;;;23.40;84.20;;;;;;4982770;28;20257;-77
2022/06/15 18:20:19;;;;;;;2.70;1.60;;;23.10;85.30;;;;;;4993389;28;20430;-77
2022/06/15 18:22:45;;;;;;;12.60;1.97;;;22.70;84.50;;;;;;4974527;28;20430;-77
2022/06/15 18:25:17;;;;;;;3.97;1.90;;;22.50;85.60;;;;;;5002842;28;20460;-76
2022/06/15 18:30:18;;;;;;;6.63;1.57;;;22.20;88.50;;;;;;5711268;22;20496;-76
2022/06/15 18:32:50;;;;;;;8.07;2.50;;;21.90;88.70;;;;;;4980571;28;20951;-76
2022/06/15 18:35:25;;;;;;;4.13;1.40;;;21.80;89.10;;;;;;4980221;28;20669;-78
2022/06/15 18:37:52;;;;;;;7.67;1.97;;;21.60;89.10;;;;;;4973531;28;20485;-76
2022/06/15 18:40:18;;;;;;;8.33;1.90;;;21.50;89.20;;;;;;4974475;28;20401;-76
2022/06/15 18:42:48;;;;;;;5.33;1.77;;;21.40;89.70;;;;;;4983935;28;20880;-76
2022/06/15 18:47:59;;;;;;;3.13;1.67;;;21.10;89.90;;;;;;4992298;28;20443;-76
2022/06/15 18:50:27;;;;;;;5.60;1.60;;;20.90;91.70;;;;;;4990372;28;20413;-76
2022/06/15 18:52:57;;;;;;;4.20;1.60;;;20.90;88.40;;;;;;4978164;28;20179;-77
2022/06/15 18:55:26;;;;;;;3.53;1.80;;;20.90;90.10;;;;;;4977159;28;20925;-76
2022/06/15 18:57:56;;;;;;;5.47;2.10;;;20.70;91.20;;;;;;4989860;28;20441;-76
2022/06/15 19:00:24;;;;;;;1.87;1.50;;;20.50;93.00;;;;;;4988281;28;20488;-76
2022/06/15 19:02:50;;;;;;;2.57;1.60;;;20.30;92.80;;;;;;4988752;28;20421;-76
2022/06/15 19:05:21;;;;;;;7.80;1.90;;;20.20;92.90;;;;;;4966203;28;20816;-76
2022/06/15 19:07:52;;;;;;;2.70;1.60;;;20.00;94.80;;;;;;4985575;28;20570;-77
2022/06/15 19:10:18;;;;;;;3.43;1.80;;;19.60;96.20;;;;;;4975848;28;20415;-78
2022/06/15 19:12:44;;;;;;;10.50;1.93;;;19.40;96.30;;;;;;4955399;28;20424;-76
2022/06/15 19:15:11;;;;;;;2.33;1.77;;;19.40;95.40;;;;;;4978613;28;20819;-77
2022/06/15 19:17:37;;;;;;;2.73;1.90;;;19.30;94.60;;;;;;4981605;28;20218;-76
2022/06/15 19:20:08;;;;;;;6.33;1.73;;;19.30;94.90;;;;;;4961495;28;20425;-76
2022/06/15 19:22:35;;;;;;;3.77;1.77;;;19.20;94.70;;;;;;4955373;29;20415;-77
2022/06/15 19:25:00;;;;;;;6.73;2.23;;;19.10;95.60;;;;;;4954951;28;20414;-76
2022/06/15 19:27:28;;;;;;;7.07;2.10;;;18.90;96.10;;;;;;4973303;28;20451;-76
2022/06/15 19:29:54;;;;;;;2.27;1.40;;;18.80;96.00;;;;;;4976604;28;20192;-76
2022/06/15 19:32:26;;;;;;;2.50;1.40;;;18.70;96.30;;;;;;4990744;28;20420;-76
2022/06/15 19:34:52;;;;;;;4.77;1.67;;;18.60;96.30;;;;;;4975860;28;20179;-75
2022/06/15 19:37:18;;;;;;;2.87;1.53;;;18.50;96.30;;;;;;4985460;28;20467;-76
2022/06/15 19:39:44;;;;;;;1.90;1.70;;;18.40;96.30;;;;;;4985398;28;20179;-75
2022/06/15 19:42:10;;;;;;;4.70;1.87;;;18.40;96.30;;;;;;4991702;28;20766;-75
2022/06/15 19:44:36;;;;;;;1.93;1.53;;;18.20;96.30;;;;;;4994389;28;20500;-75
2022/06/15 19:47:02;;;;;;;1.83;1.40;;;18.10;96.30;;;;;;4977129;28;21000;-75
2022/06/15 19:49:28;;;;;;;3.67;1.80;;;17.80;96.30;;;;;;4994205;28;20279;-75
2022/06/15 19:51:54;;;;;;;3.97;2.10;;;17.60;96.30;;;;;;4994034;28;20497;-75
2022/06/15 19:54:21;;;;;;;4.03;2.20;;;17.50;96.30;;;;;;4994478;28;20169;-75
2022/06/15 19:56:48;;;;;;;6.60;2.17;;;17.30;96.30;;;;;;4993897;28;20212;-76
2022/06/15 19:59:13;;;;;;;3.23;2.07;;;17.40;96.30;;;;;;4985288;28;20441;-77
2022/06/15 20:01:39;;;;;;;4.27;1.83;;;17.40;96.30;;;;;;4984233;28;20513;-77
2022/06/15 20:04:08;;;;;;;4.57;2.17;;;17.20;96.30;;;;;;4973930;28;20171;-77